FAT weather

Fresno Yosemite International Airport
Fresno, California, United States

Public forecast

Using degrees Fahrenheit for public forecast. Weather courtesy of forecast.io.

METAR (pilot weather report)

Retrieved 2019/06/17 23:53 UTC (42 minutes ago):

KFAT 172353Z VRB04KT 10SM FEW110 SCT150 BKN200 36/08 A2976 RMK AO2 LTG DSNT NE SLP074 CLDS OBSCG MTNS DSNT N-NE-E T03560083 10356 20289 55004

TAF (pilot weather forecast)

Forecast is more than 12 hours old.

Retrieved 2019/06/17 00:24 UTC (1 day ago):

TAF KFAT 172322Z 1800/1824 31007KT P6SM SCT200